Time;durP1;ratioP1;P1;durP2;ratioP2;P2;SDS_P1;SDS_P2;PMS_P1;PMS_P2;Temp;Humidity;BMP_temperature;BMP_pressure;BME280_temperature;BME280_humidity;BME280_pressure;Samples;Min_cycle;Max_cycle;Signal;HPM_P1;HPM_P2
2021/12/21 00:00:39;;;;;;;12.10;8.03;;;3.00;85.20;;;;;;5140889;27;20515;-44
2021/12/21 00:03:04;;;;;;;11.10;7.53;;;2.90;85.90;;;;;;5122261;27;20535;-44
2021/12/21 00:05:30;;;;;;;10.67;8.00;;;2.80;86.40;;;;;;5140506;27;20263;-44
2021/12/21 00:07:59;;;;;;;11.23;7.93;;;2.70;86.80;;;;;;5140713;27;20187;-51
2021/12/21 00:10:27;;;;;;;10.10;7.77;;;2.70;87.40;;;;;;5140600;27;20459;-44
2021/12/21 00:21:04;;;;;;;8.50;6.73;;;2.50;88.50;;;;;;5139779;27;20894;-44
2021/12/21 00:23:42;;;;;;;11.67;7.47;;;2.50;88.90;;;;;;5139934;27;20515;-44
2021/12/21 00:26:19;;;;;;;11.53;7.07;;;2.40;88.90;;;;;;5139868;27;20696;-44
2021/12/21 00:29:00;;;;;;;9.60;6.20;;;2.30;89.00;;;;;;5139989;27;20736;-44
2021/12/21 00:31:29;;;;;;;8.60;6.37;;;2.30;89.30;;;;;;5139635;27;20750;-44
2021/12/21 00:33:55;;;;;;;10.10;7.53;;;2.30;89.30;;;;;;5139950;27;20792;-44
2021/12/21 00:36:27;;;;;;;7.43;6.63;;;2.20;89.30;;;;;;5139630;27;20457;-44
2021/12/21 00:38:55;;;;;;;11.77;7.10;;;2.20;89.40;;;;;;5139480;27;20659;-44
2021/12/21 00:41:22;;;;;;;12.00;6.97;;;2.20;89.30;;;;;;5121697;27;20425;-44
2021/12/21 00:43:51;;;;;;;9.63;6.20;;;2.10;90.00;;;;;;5139082;27;20425;-44
2021/12/21 00:46:16;;;;;;;9.33;6.53;;;2.10;89.30;;;;;;5139542;27;20419;-44
2021/12/21 00:48:49;;;;;;;10.80;6.80;;;2.10;89.30;;;;;;5139121;27;20531;-44
2021/12/21 00:51:16;;;;;;;10.43;6.70;;;2.10;89.20;;;;;;5139733;27;20214;-44
2021/12/21 00:53:42;;;;;;;13.13;7.10;;;2.00;89.10;;;;;;5139413;27;20461;-44
2021/12/21 00:56:07;;;;;;;8.87;6.30;;;2.00;89.20;;;;;;5139465;27;20437;-44
2021/12/21 00:58:33;;;;;;;6.53;5.13;;;2.00;89.30;;;;;;5139419;27;20278;-44
2021/12/21 01:01:04;;;;;;;9.63;5.93;;;2.00;89.40;;;;;;5139882;27;20175;-44
2021/12/21 01:03:30;;;;;;;10.20;6.20;;;1.90;89.40;;;;;;5139372;27;20175;-44
2021/12/21 01:06:05;;;;;;;9.73;5.17;;;1.90;89.40;;;;;;5139598;27;20437;-44
2021/12/21 01:08:42;;;;;;;7.97;5.80;;;1.90;89.40;;;;;;5139656;27;20452;-44
2021/12/21 01:11:14;;;;;;;9.23;5.40;;;1.90;89.50;;;;;;5139652;27;20509;-44
2021/12/21 01:14:00;;;;;;;6.33;5.53;;;1.80;89.50;;;;;;5139429;27;20429;-44
2021/12/21 01:21:24;;;;;;;10.50;6.47;;;1.80;89.30;;;;;;5139215;27;20236;-44
2021/12/21 01:24:40;;;;;;;9.40;5.80;;;1.80;89.40;;;;;;5139153;27;20421;-44
2021/12/21 01:29:44;;;;;;;11.60;6.10;;;1.80;89.30;;;;;;5096842;27;20451;-44
2021/12/21 01:32:23;;;;;;;9.67;5.57;;;1.70;89.10;;;;;;5138510;27;20516;-44
2021/12/21 01:35:16;;;;;;;8.90;5.60;;;1.70;89.10;;;;;;5138525;27;20870;-44
2021/12/21 01:40:40;;;;;;;7.13;5.27;;;1.70;89.00;;;;;;5104093;27;20425;-43
2021/12/21 01:43:23;;;;;;;8.00;5.63;;;1.70;89.00;;;;;;5137953;27;20533;-44
2021/12/21 01:51:18;;;;;;;10.27;6.83;;;1.60;88.70;;;;;;5138494;28;20412;-44
2021/12/21 01:53:45;;;;;;;12.30;6.40;;;1.60;88.60;;;;;;5138760;27;20436;-44
2021/12/21 01:56:11;;;;;;;8.40;6.30;;;1.60;88.40;;;;;;5120650;27;20421;-44
2021/12/21 01:58:39;;;;;;;10.50;6.00;;;1.60;88.30;;;;;;5138538;28;20432;-44
2021/12/21 02:01:07;;;;;;;8.20;6.00;;;1.50;88.10;;;;;;5138384;27;20690;-44
2021/12/21 02:03:32;;;;;;;7.93;5.53;;;1.50;88.00;;;;;;5119193;28;20416;-44
2021/12/21 02:05:58;;;;;;;10.43;6.10;;;1.40;87.80;;;;;;5138723;27;20486;-45
2021/12/21 02:08:23;;;;;;;8.30;5.57;;;1.40;87.50;;;;;;5139105;27;20256;-45
2021/12/21 02:10:49;;;;;;;8.23;5.93;;;1.40;87.30;;;;;;5120648;28;20270;-44
2021/12/21 02:13:15;;;;;;;9.50;6.47;;;1.30;87.00;;;;;;5138448;27;20195;-44
2021/12/21 02:15:41;;;;;;;10.40;6.30;;;1.30;87.00;;;;;;5138538;27;20203;-44
2021/12/21 02:20:50;;;;;;;10.37;5.90;;;1.20;86.50;;;;;;5138555;27;20198;-44
2021/12/21 02:23:22;;;;;;;10.23;6.20;;;1.10;86.40;;;;;;5138419;27;20439;-45
2021/12/21 02:26:48;;;;;;;9.20;6.30;;;1.10;86.20;;;;;;5138670;27;20545;-44
2021/12/21 02:29:25;;;;;;;10.73;7.43;;;1.00;86.00;;;;;;5138558;27;20435;-43
2021/12/21 02:31:51;;;;;;;7.43;6.37;;;1.00;85.90;;;;;;5138029;27;20495;-44
2021/12/21 02:34:18;;;;;;;9.27;7.00;;;0.90;85.70;;;;;;5137196;28;20504;-44
2021/12/21 02:36:46;;;;;;;11.07;6.70;;;0.90;85.60;;;;;;5138408;27;20409;-44
2021/12/21 02:39:12;;;;;;;12.23;7.60;;;0.90;86.10;;;;;;5138544;27;20721;-44
2021/12/21 02:41:38;;;;;;;11.37;7.93;;;0.80;85.20;;;;;;5138303;28;20417;-44
2021/12/21 02:44:04;;;;;;;13.00;8.60;;;0.80;84.90;;;;;;5137861;28;20502;-44
2021/12/21 02:46:29;;;;;;;11.80;8.13;;;0.70;84.90;;;;;;5137974;27;20187;-44
2021/12/21 02:48:55;;;;;;;12.33;8.73;;;0.70;84.90;;;;;;5134750;27;20417;-44
2021/12/21 02:51:22;;;;;;;11.40;8.33;;;0.60;84.90;;;;;;5134557;27;20178;-44
2021/12/21 02:53:48;;;;;;;11.87;8.37;;;0.60;84.80;;;;;;5134307;27;20429;-45
2021/12/21 02:56:14;;;;;;;9.47;8.10;;;0.60;84.80;;;;;;5137844;27;20716;-44
2021/12/21 02:58:40;;;;;;;15.43;8.97;;;0.50;84.60;;;;;;5138252;27;20420;-44
2021/12/21 03:01:07;;;;;;;13.23;8.97;;;0.50;84.90;;;;;;5138019;27;21037;-45
2021/12/21 03:03:33;;;;;;;14.70;8.53;;;0.50;85.50;;;;;;5139225;27;20496;-44
2021/12/21 03:06:00;;;;;;;9.57;7.83;;;0.50;85.10;;;;;;5141882;27;20562;-44
2021/12/21 03:08:45;;;;;;;15.63;10.20;;;0.40;84.00;;;;;;5123433;27;20180;-45
2021/12/21 03:11:22;;;;;;;14.07;10.23;;;0.40;84.10;;;;;;5126309;27;20594;-44
2021/12/21 03:14:03;;;;;;;15.90;9.57;;;0.30;84.30;;;;;;5141548;27;20421;-44
2021/12/21 03:16:30;;;;;;;13.57;9.83;;;0.30;83.40;;;;;;5141315;27;20486;-44
2021/12/21 03:18:57;;;;;;;14.50;10.07;;;0.30;83.40;;;;;;5141160;27;20397;-45
2021/12/21 03:21:25;;;;;;;14.30;10.10;;;0.20;84.20;;;;;;5141198;27;20472;-44
2021/12/21 03:23:50;;;;;;;12.90;9.27;;;0.20;83.50;;;;;;5140463;27;20496;-44
2021/12/21 03:26:16;;;;;;;17.57;9.23;;;0.20;83.50;;;;;;5140356;27;20578;-45
2021/12/21 03:28:42;;;;;;;13.77;8.20;;;0.20;83.50;;;;;;5140045;27;20203;-44
2021/12/21 03:31:09;;;;;;;10.20;8.10;;;0.20;83.50;;;;;;5140296;27;20587;-44
2021/12/21 03:33:36;;;;;;;11.83;8.10;;;0.10;83.40;;;;;;5139146;27;20172;-44
2021/12/21 03:36:02;;;;;;;12.27;8.60;;;0.10;83.40;;;;;;5139784;27;20479;-44
2021/12/21 03:38:29;;;;;;;15.80;9.10;;;0.10;83.30;;;;;;5140769;27;20397;-44
2021/12/21 03:41:03;;;;;;;11.93;8.23;;;0.10;83.30;;;;;;5140877;27;20547;-49
2021/12/21 03:43:32;;;;;;;12.33;8.20;;;0.00;83.10;;;;;;5140823;27;20877;-44
2021/12/21 03:46:07;;;;;;;11.60;8.03;;;0.00;82.90;;;;;;5140756;27;20443;-44
2021/12/21 03:48:36;;;;;;;13.90;8.70;;;0.00;82.80;;;;;;5122341;27;20466;-44
2021/12/21 03:51:02;;;;;;;11.37;8.70;;;0.00;82.80;;;;;;5138315;27;20528;-44
2021/12/21 03:53:28;;;;;;;11.97;8.73;;;0.00;82.80;;;;;;5138692;27;20413;-44
2021/12/21 03:56:07;;;;;;;16.10;8.37;;;-0.10;82.70;;;;;;5138317;27;20519;-45
2021/12/21 03:58:33;;;;;;;11.77;9.13;;;-0.10;82.70;;;;;;5138011;27;20558;-45
2021/12/21 04:00:59;;;;;;;11.23;8.47;;;-0.10;82.60;;;;;;5138042;27;20425;-44
2021/12/21 04:03:25;;;;;;;17.57;8.80;;;-0.10;82.40;;;;;;5138421;27;20183;-43
2021/12/21 04:05:50;;;;;;;12.30;9.10;;;-0.20;82.40;;;;;;5121767;27;20202;-44
2021/12/21 04:08:16;;;;;;;12.77;8.60;;;-0.20;82.50;;;;;;5140742;27;20261;-44
2021/12/21 04:10:41;;;;;;;12.50;9.33;;;-0.20;82.50;;;;;;5139747;27;20179;-43
2021/12/21 04:13:10;;;;;;;12.70;8.90;;;-0.20;82.50;;;;;;5139854;27;20626;-43
2021/12/21 04:15:42;;;;;;;13.63;9.10;;;-0.30;82.40;;;;;;5139224;27;20262;-44
2021/12/21 04:18:11;;;;;;;10.10;8.13;;;-0.30;82.50;;;;;;5138469;27;20807;-44
2021/12/21 04:20:44;;;;;;;12.70;8.70;;;-0.30;82.50;;;;;;5138399;27;20757;-45
2021/12/21 04:23:10;;;;;;;11.30;8.40;;;-0.30;82.50;;;;;;5138470;27;20417;-45
2021/12/21 04:25:35;;;;;;;9.50;7.87;;;-0.30;83.10;;;;;;5138626;27;20806;-44
2021/12/21 04:28:01;;;;;;;9.73;7.93;;;-0.30;82.40;;;;;;5138409;27;20424;-44
2021/12/21 04:30:27;;;;;;;11.53;8.30;;;-0.30;82.50;;;;;;5138819;27;20188;-45
2021/12/21 04:32:53;;;;;;;11.30;8.43;;;-0.30;82.50;;;;;;5138094;27;20194;-44
2021/12/21 04:35:20;;;;;;;12.63;7.90;;;-0.40;82.30;;;;;;5138521;27;20480;-44
2021/12/21 04:37:57;;;;;;;11.60;8.07;;;-0.40;82.30;;;;;;5138088;27;20178;-45
2021/12/21 04:40:37;;;;;;;9.90;7.57;;;-0.40;82.20;;;;;;5138923;27;20701;-44
2021/12/21 04:43:03;;;;;;;12.13;8.70;;;-0.40;82.00;;;;;;5139329;27;20432;-44
2021/12/21 04:45:31;;;;;;;12.00;7.73;;;-0.50;81.80;;;;;;5121699;27;20443;-44
2021/12/21 04:47:57;;;;;;;13.30;8.10;;;-0.50;82.60;;;;;;5139443;27;20532;-44
2021/12/21 04:50:23;;;;;;;9.80;7.30;;;-0.40;85.20;;;;;;5139556;27;20523;-44
2021/12/21 04:52:48;;;;;;;11.73;7.53;;;-0.50;81.70;;;;;;5139116;27;20466;-44
2021/12/21 04:55:14;;;;;;;11.00;7.73;;;-0.60;81.60;;;;;;5138902;27;20208;-44
2021/12/21 04:57:41;;;;;;;12.77;7.87;;;-0.60;81.60;;;;;;5139347;27;20203;-44
2021/12/21 05:00:09;;;;;;;10.07;7.10;;;-0.60;81.70;;;;;;5138938;27;20250;-44
2021/12/21 05:02:37;;;;;;;10.33;8.37;;;-0.60;81.80;;;;;;5138407;27;20756;-45
2021/12/21 05:05:05;;;;;;;10.17;6.87;;;-0.70;82.10;;;;;;5139377;27;20520;-47
2021/12/21 05:07:33;;;;;;;11.50;8.10;;;-0.60;91.10;;;;;;5140245;27;20421;-47
2021/12/21 05:10:01;;;;;;;10.20;8.07;;;-0.60;82.50;;;;;;5137772;27;20409;-46
2021/12/21 05:12:28;;;;;;;11.10;7.57;;;-0.60;82.60;;;;;;5136897;27;20497;-47
2021/12/21 05:14:54;;;;;;;12.50;7.70;;;-0.60;83.20;;;;;;5136391;27;20529;-47
2021/12/21 05:17:20;;;;;;;12.20;8.83;;;-0.50;84.10;;;;;;5135250;27;20425;-47
2021/12/21 05:19:45;;;;;;;10.70;8.40;;;-0.50;85.30;;;;;;5135800;27;20496;-47
2021/12/21 05:22:11;;;;;;;9.90;7.43;;;-0.50;85.80;;;;;;5135820;27;20174;-47
2021/12/21 05:24:39;;;;;;;9.20;7.10;;;-0.50;80.90;;;;;;5135831;27;20218;-47
2021/12/21 05:27:06;;;;;;;12.03;8.07;;;-0.50;80.70;;;;;;5138996;27;20409;-47
2021/12/21 05:29:32;;;;;;;10.90;8.50;;;-0.60;80.40;;;;;;5121196;27;20421;-47
2021/12/21 05:31:59;;;;;;;14.13;8.90;;;-0.60;80.40;;;;;;5139128;27;20811;-46
2021/12/21 05:34:25;;;;;;;14.20;8.47;;;-0.60;80.30;;;;;;5139194;27;20551;-46
2021/12/21 05:36:51;;;;;;;14.20;9.63;;;-0.60;80.30;;;;;;5137904;27;20688;-48
2021/12/21 05:39:21;;;;;;;11.90;9.63;;;-0.60;80.30;;;;;;5137794;27;20527;-48
2021/12/21 05:44:14;;;;;;;14.17;10.03;;;-0.70;80.20;;;;;;5138197;27;20433;-48
2021/12/21 05:46:39;;;;;;;14.37;9.33;;;-0.70;80.30;;;;;;5118043;28;20179;-48
2021/12/21 05:49:05;;;;;;;14.60;10.10;;;-0.70;80.30;;;;;;5136555;27;20732;-48
2021/12/21 05:51:31;;;;;;;15.47;9.33;;;-0.70;80.30;;;;;;5137279;27;20171;-48
2021/12/21 05:53:56;;;;;;;12.00;9.33;;;-0.70;80.20;;;;;;5136621;27;20203;-48
2021/12/21 05:56:22;;;;;;;16.23;9.30;;;-0.70;80.20;;;;;;5137362;27;20168;-47
2021/12/21 05:58:49;;;;;;;15.00;9.30;;;-0.70;80.10;;;;;;5117536;27;20187;-48
2021/12/21 06:01:15;;;;;;;17.20;10.00;;;-0.80;80.00;;;;;;5118748;28;20681;-48
2021/12/21 06:03:40;;;;;;;15.50;9.93;;;-0.80;79.90;;;;;;5136373;27;20429;-48
2021/12/21 06:06:12;;;;;;;13.33;9.97;;;-0.80;79.90;;;;;;5136848;27;20748;-48
2021/12/21 06:08:38;;;;;;;12.30;9.10;;;-0.80;79.90;;;;;;5136141;27;20191;-47
2021/12/21 06:11:06;;;;;;;15.80;9.60;;;-0.90;79.90;;;;;;5137786;27;20421;-47
2021/12/21 06:26:43;;;;;;;11.10;8.50;;;-1.00;79.70;;;;;;5133154;27;20474;-47
2021/12/21 06:29:08;;;;;;;12.33;9.17;;;-1.00;79.70;;;;;;5134257;27;20537;-47
2021/12/21 06:31:34;;;;;;;15.40;9.50;;;-1.00;79.70;;;;;;5138440;27;20481;-47
2021/12/21 06:34:00;;;;;;;12.13;8.83;;;-1.00;79.70;;;;;;5139126;27;20509;-47
2021/12/21 06:36:26;;;;;;;15.63;10.67;;;-1.10;79.60;;;;;;5138994;27;20413;-47
2021/12/21 06:38:53;;;;;;;12.77;8.80;;;-1.10;79.70;;;;;;5140674;27;20476;-47
2021/12/21 06:41:20;;;;;;;14.17;9.40;;;-1.10;79.70;;;;;;5124052;27;20644;-46
2021/12/21 06:43:48;;;;;;;15.90;10.53;;;-1.10;79.70;;;;;;5141682;27;20435;-47
2021/12/21 06:46:42;;;;;;;11.83;8.80;;;-1.10;79.70;;;;;;5141338;27;20410;-47
2021/12/21 06:51:54;;;;;;;13.80;8.73;;;-1.10;79.50;;;;;;5135163;27;20583;-47
2021/12/21 06:54:21;;;;;;;13.03;8.90;;;-1.10;79.50;;;;;;5134681;27;20482;-47
2021/12/21 06:56:47;;;;;;;12.70;9.20;;;-1.10;79.40;;;;;;5135699;27;20405;-48
2021/12/21 06:59:13;;;;;;;10.23;8.03;;;-1.10;79.40;;;;;;5135972;27;20436;-48
2021/12/21 07:01:39;;;;;;;14.73;9.43;;;-1.10;79.30;;;;;;5134642;27;20187;-47
2021/12/21 07:04:06;;;;;;;12.93;8.70;;;-1.10;79.20;;;;;;5117293;27;20488;-47
2021/12/21 07:06:35;;;;;;;10.63;8.20;;;-1.10;79.20;;;;;;5135841;27;20409;-46
2021/12/21 07:09:07;;;;;;;12.93;9.50;;;-1.20;79.10;;;;;;5134860;27;20429;-46
2021/12/21 07:19:28;;;;;;;15.23;9.07;;;-1.20;79.10;;;;;;5134595;27;20416;-47
2021/12/21 07:21:54;;;;;;;12.57;9.70;;;-1.10;79.00;;;;;;5137226;27;20490;-48
2021/12/21 07:24:20;;;;;;;12.13;9.93;;;-1.20;78.90;;;;;;5118789;27;20839;-39
2021/12/21 07:26:46;;;;;;;17.17;12.73;;;-1.20;78.90;;;;;;5136636;27;20429;-41
2021/12/21 07:29:11;;;;;;;19.00;11.87;;;-1.20;78.90;;;;;;5136772;27;20175;-41
2021/12/21 07:31:37;;;;;;;17.97;11.27;;;-1.20;78.90;;;;;;5137164;27;20239;-41
2021/12/21 07:34:03;;;;;;;15.63;11.77;;;-1.20;79.00;;;;;;5137401;27;20172;-40
2021/12/21 07:36:33;;;;;;;20.87;11.83;;;-1.20;79.00;;;;;;5116803;27;20225;-40
2021/12/21 07:39:04;;;;;;;21.93;12.40;;;-1.20;79.00;;;;;;5135493;27;20517;-41
2021/12/21 07:41:30;;;;;;;17.97;12.80;;;-1.10;79.20;;;;;;5117383;27;20425;-40
2021/12/21 07:43:56;;;;;;;16.57;11.43;;;-1.10;79.20;;;;;;5116775;27;20426;-41
2021/12/21 07:46:21;;;;;;;16.73;11.50;;;-1.10;79.30;;;;;;5133889;27;20705;-40
2021/12/21 07:48:47;;;;;;;16.33;11.33;;;-1.00;79.60;;;;;;5132799;27;20453;-39
2021/12/21 07:51:13;;;;;;;16.00;10.40;;;-0.80;79.90;;;;;;5134257;27;20592;-39
2021/12/21 07:53:39;;;;;;;15.30;11.33;;;-0.60;80.10;;;;;;5117536;27;20453;-39
2021/12/21 07:56:05;;;;;;;13.77;10.67;;;-0.40;80.00;;;;;;5137705;27;20468;-40
2021/12/21 07:58:32;;;;;;;16.23;10.57;;;-0.20;79.80;;;;;;5119374;27;20453;-41
2021/12/21 08:00:59;;;;;;;14.67;11.57;;;0.20;79.80;;;;;;5137864;27;20176;-41
2021/12/21 08:03:26;;;;;;;12.47;10.17;;;0.50;79.60;;;;;;5119657;27;20409;-40
2021/12/21 08:05:54;;;;;;;15.47;10.00;;;0.90;79.20;;;;;;5138927;27;20440;-41
2021/12/21 08:08:23;;;;;;;16.50;11.73;;;1.40;78.80;;;;;;5139694;27;20417;-40
2021/12/21 08:13:16;;;;;;;13.63;10.77;;;2.30;77.40;;;;;;5139067;27;20413;-42
2021/12/21 08:15:47;;;;;;;15.23;11.70;;;2.80;76.80;;;;;;5137722;27;20596;-40
2021/12/21 08:18:13;;;;;;;12.73;10.47;;;3.20;76.10;;;;;;5137589;27;20487;-40
2021/12/21 08:20:38;;;;;;;15.10;10.10;;;3.70;75.40;;;;;;5118162;27;20911;-41
2021/12/21 08:23:08;;;;;;;14.87;10.40;;;4.20;74.90;;;;;;5137304;27;20628;-51
2021/12/21 08:25:35;;;;;;;13.57;10.90;;;4.60;74.20;;;;;;5120094;27;20235;-41
2021/12/21 08:28:01;;;;;;;14.43;11.27;;;5.10;73.70;;;;;;5138414;27;20423;-42
2021/12/21 08:30:30;;;;;;;15.00;12.70;;;5.50;73.00;;;;;;5134913;27;20910;-42
2021/12/21 08:32:59;;;;;;;12.77;10.70;;;5.90;72.10;;;;;;5116879;27;20834;-39
2021/12/21 08:35:25;;;;;;;17.30;11.77;;;6.40;71.20;;;;;;5133425;27;20495;-42
2021/12/21 08:37:53;;;;;;;12.97;11.30;;;6.80;70.30;;;;;;5133509;27;20425;-42
2021/12/21 08:40:19;;;;;;;12.50;11.03;;;7.20;69.20;;;;;;5115530;27;20488;-41
2021/12/21 08:42:47;;;;;;;12.57;11.23;;;7.70;68.80;;;;;;5115255;27;20703;-41
2021/12/21 08:45:13;;;;;;;14.60;11.20;;;8.10;67.00;;;;;;5116583;27;20725;-42
2021/12/21 08:47:44;;;;;;;13.83;10.67;;;8.60;65.70;;;;;;5135986;27;20440;-41
2021/12/21 08:50:12;;;;;;;14.30;12.07;;;9.00;64.60;;;;;;5118759;27;20409;-41
2021/12/21 08:52:38;;;;;;;14.70;11.20;;;9.50;62.80;;;;;;5118052;27;20716;-41
2021/12/21 08:55:08;;;;;;;15.60;11.50;;;9.80;61.20;;;;;;5137481;27;20461;-41
2021/12/21 08:57:36;;;;;;;13.80;11.57;;;10.20;58.90;;;;;;5120829;27;20424;-46
2021/12/21 09:00:06;;;;;;;13.07;10.70;;;10.60;58.20;;;;;;5121392;27;20428;-42
2021/12/21 09:02:35;;;;;;;14.20;10.13;;;11.00;57.40;;;;;;5119984;27;20437;-42
2021/12/21 09:05:07;;;;;;;16.77;12.23;;;11.50;56.80;;;;;;5117658;27;21009;-41
2021/12/21 09:07:32;;;;;;;14.07;11.07;;;11.90;55.70;;;;;;5116600;27;20549;-42
2021/12/21 09:09:58;;;;;;;12.37;11.13;;;12.30;54.60;;;;;;5136545;27;20502;-43
2021/12/21 09:12:23;;;;;;;15.70;10.37;;;12.70;53.60;;;;;;5136864;27;20244;-42
2021/12/21 09:14:49;;;;;;;18.57;12.63;;;13.10;52.70;;;;;;5137289;27;20202;-42
2021/12/21 09:17:15;;;;;;;13.63;10.90;;;13.50;51.50;;;;;;5138645;27;20762;-43
2021/12/21 09:19:40;;;;;;;13.00;10.77;;;13.80;50.40;;;;;;5138740;27;20175;-44
2021/12/21 09:22:06;;;;;;;13.00;10.67;;;14.30;50.00;;;;;;5119387;27;20227;-42
2021/12/21 09:24:32;;;;;;;11.60;10.07;;;14.70;48.70;;;;;;5138039;27;20234;-42
2021/12/21 09:26:59;;;;;;;12.67;10.40;;;15.10;48.00;;;;;;5137914;27;20447;-45
2021/12/21 09:29:24;;;;;;;14.67;9.20;;;15.50;47.10;;;;;;5138189;27;20461;-42
2021/12/21 09:31:50;;;;;;;11.03;9.77;;;15.90;46.20;;;;;;5138196;27;20417;-45
2021/12/21 09:34:16;;;;;;;8.93;8.03;;;16.40;45.60;;;;;;5120648;27;20252;-45
2021/12/21 09:36:41;;;;;;;8.07;6.87;;;16.80;44.70;;;;;;5136534;27;20232;-42
2021/12/21 09:39:07;;;;;;;9.73;7.93;;;17.20;44.20;;;;;;5117116;27;20367;-42
2021/12/21 09:41:33;;;;;;;11.07;6.43;;;17.60;43.50;;;;;;5136238;27;20236;-42
2021/12/21 09:44:01;;;;;;;5.30;4.80;;;18.00;42.60;;;;;;5136606;27;20190;-42
2021/12/21 09:46:26;;;;;;;6.17;4.70;;;18.40;42.00;;;;;;5135984;27;20857;-42
2021/12/21 09:48:52;;;;;;;4.03;3.63;;;18.80;41.10;;;;;;5117010;28;20423;-48
2021/12/21 09:51:18;;;;;;;5.30;4.33;;;19.20;40.30;;;;;;5135907;27;20269;-42
2021/12/21 09:53:44;;;;;;;5.90;4.30;;;19.50;39.60;;;;;;5116646;27;20191;-41
2021/12/21 09:56:09;;;;;;;4.70;4.17;;;19.90;39.20;;;;;;5115110;28;20667;-44
2021/12/21 09:58:35;;;;;;;5.40;3.87;;;20.30;38.90;;;;;;5135202;27;20171;-42
2021/12/21 10:01:01;;;;;;;6.03;4.57;;;20.60;38.10;;;;;;5116765;28;20202;-43
2021/12/21 10:03:27;;;;;;;6.80;4.47;;;21.00;37.70;;;;;;5135781;27;20443;-43
2021/12/21 10:06:05;;;;;;;3.87;3.40;;;21.40;37.20;;;;;;5137600;27;20507;-42
2021/12/21 10:08:37;;;;;;;4.50;3.40;;;21.80;36.60;;;;;;5102594;27;20555;-42
2021/12/21 10:11:06;;;;;;;3.77;3.00;;;22.20;36.00;;;;;;5105228;27;20409;-42
2021/12/21 10:13:35;;;;;;;5.60;2.90;;;22.60;37.00;;;;;;5141272;27;20766;-44
2021/12/21 10:16:04;;;;;;;2.90;2.10;;;23.10;40.40;;;;;;5122036;27;20475;-43
2021/12/21 10:18:38;;;;;;;5.83;2.37;;;23.60;42.60;;;;;;5139626;27;20428;-43
2021/12/21 10:21:06;;;;;;;4.83;2.63;;;24.10;43.70;;;;;;5140399;27;20499;-42
2021/12/21 10:23:35;;;;;;;4.57;2.50;;;24.50;43.80;;;;;;5140400;27;20435;-43
2021/12/21 10:26:08;;;;;;;4.23;3.17;;;25.00;42.80;;;;;;5140851;27;20499;-42
2021/12/21 10:28:48;;;;;;;5.53;3.60;;;25.30;41.60;;;;;;5141030;27;20462;-42
2021/12/21 10:31:22;;;;;;;5.17;3.07;;;25.60;41.10;;;;;;5140207;27;20727;-43
2021/12/21 10:33:48;;;;;;;5.33;2.60;;;25.90;40.40;;;;;;5138790;27;20447;-44
2021/12/21 10:36:15;;;;;;;4.67;3.27;;;26.20;39.00;;;;;;5139260;27;20457;-44
2021/12/21 10:38:54;;;;;;;3.53;2.80;;;26.40;38.40;;;;;;5140380;27;20280;-44
2021/12/21 10:41:42;;;;;;;3.37;2.43;;;26.70;38.10;;;;;;5122526;27;20406;-44
2021/12/21 10:44:11;;;;;;;3.93;2.50;;;27.00;37.80;;;;;;5140046;27;20757;-43
2021/12/21 10:46:42;;;;;;;6.00;3.00;;;27.20;37.30;;;;;;5138137;27;20405;-44
2021/12/21 10:49:10;;;;;;;3.83;2.73;;;27.40;36.40;;;;;;5137246;27;20400;-44
2021/12/21 10:51:50;;;;;;;3.10;2.73;;;27.70;35.90;;;;;;5137674;27;20408;-43
2021/12/21 10:54:36;;;;;;;2.93;2.57;;;27.90;35.40;;;;;;5118550;27;20402;-44
2021/12/21 10:57:10;;;;;;;5.23;2.90;;;28.10;34.80;;;;;;5136207;27;20403;-43
2021/12/21 10:59:37;;;;;;;3.73;2.60;;;28.30;34.40;;;;;;5136963;27;20829;-42
2021/12/21 11:02:29;;;;;;;3.77;2.53;;;28.40;34.00;;;;;;5138542;27;20424;-42
2021/12/21 11:05:00;;;;;;;3.30;2.60;;;28.50;33.40;;;;;;5120762;27;20553;-43
2021/12/21 11:07:36;;;;;;;3.10;2.40;;;28.60;33.00;;;;;;5138647;27;20900;-44
2021/12/21 11:10:25;;;;;;;3.93;3.03;;;28.70;32.50;;;;;;5121924;27;20465;-44
2021/12/21 11:12:53;;;;;;;4.13;2.83;;;28.90;31.80;;;;;;5104901;27;20469;-44
2021/12/21 11:15:30;;;;;;;2.80;2.30;;;29.10;32.20;;;;;;5098992;27;20465;-45
2021/12/21 11:17:56;;;;;;;3.20;2.43;;;29.10;32.20;;;;;;5133871;27;20403;-44
2021/12/21 11:20:22;;;;;;;4.07;2.33;;;29.30;31.80;;;;;;5137260;27;20415;-43
2021/12/21 11:22:48;;;;;;;4.20;3.10;;;29.30;31.10;;;;;;5137173;27;20480;-43
2021/12/21 11:25:14;;;;;;;3.37;2.67;;;29.40;30.90;;;;;;5137756;27;20227;-44
2021/12/21 11:27:42;;;;;;;2.40;2.13;;;29.60;31.00;;;;;;5101267;27;20193;-44
2021/12/21 11:30:14;;;;;;;2.90;2.70;;;29.70;30.80;;;;;;5136168;27;20432;-43
2021/12/21 11:32:45;;;;;;;3.17;2.40;;;29.70;30.60;;;;;;5134257;27;20470;-45
2021/12/21 11:37:54;;;;;;;3.27;2.80;;;30.00;30.30;;;;;;5134501;27;20775;-45
2021/12/21 11:40:24;;;;;;;4.53;2.17;;;30.20;29.50;;;;;;5135807;27;20502;-45
2021/12/21 11:42:55;;;;;;;2.83;2.43;;;30.40;28.80;;;;;;5118122;27;20403;-43
2021/12/21 11:45:32;;;;;;;3.87;2.90;;;30.60;28.00;;;;;;5119138;27;21000;-44
2021/12/21 11:48:10;;;;;;;3.30;3.00;;;30.80;27.40;;;;;;5117833;27;20443;-43
2021/12/21 11:50:44;;;;;;;4.50;3.03;;;31.00;27.00;;;;;;5136994;27;20571;-43
2021/12/21 11:53:13;;;;;;;4.47;3.30;;;31.20;26.20;;;;;;5120057;27;20427;-43
2021/12/21 11:55:42;;;;;;;4.10;3.10;;;31.30;26.00;;;;;;5137220;27;20444;-45
2021/12/21 11:58:18;;;;;;;5.00;3.30;;;31.40;25.70;;;;;;5138266;27;20802;-42
2021/12/21 12:01:00;;;;;;;3.73;3.30;;;31.40;25.50;;;;;;5138071;27;20387;-43
2021/12/21 12:03:28;;;;;;;4.20;3.03;;;31.50;25.20;;;;;;5121294;27;20430;-45
2021/12/21 12:06:00;;;;;;;3.73;2.93;;;31.50;25.10;;;;;;5136817;27;20478;-44
2021/12/21 12:08:49;;;;;;;3.10;2.80;;;31.60;25.10;;;;;;5137010;27;20457;-45
2021/12/21 12:11:26;;;;;;;3.90;3.03;;;31.70;24.90;;;;;;5136169;27;20389;-43
2021/12/21 12:14:05;;;;;;;2.73;2.53;;;31.80;24.90;;;;;;5136949;27;20480;-44
2021/12/21 12:16:48;;;;;;;4.10;3.10;;;31.90;25.10;;;;;;5138019;27;20390;-43
2021/12/21 12:19:17;;;;;;;4.07;3.27;;;32.00;24.60;;;;;;5135331;27;20397;-44
2021/12/21 12:21:53;;;;;;;3.23;2.90;;;32.10;24.50;;;;;;5135922;27;20793;-45
2021/12/21 12:24:20;;;;;;;3.33;2.93;;;32.20;24.30;;;;;;5134310;27;20454;-44
2021/12/21 12:26:56;;;;;;;4.70;3.17;;;32.40;24.40;;;;;;5116053;27;20507;-42
2021/12/21 12:29:22;;;;;;;4.43;3.10;;;32.50;24.20;;;;;;5131677;27;20731;-43
2021/12/21 12:32:04;;;;;;;3.80;3.50;;;32.50;24.00;;;;;;5132576;27;20475;-44
2021/12/21 12:34:32;;;;;;;3.70;3.40;;;32.70;23.90;;;;;;5133614;27;20851;-45
2021/12/21 12:37:00;;;;;;;4.60;2.80;;;32.70;23.80;;;;;;5114944;27;20520;-43
2021/12/21 12:39:36;;;;;;;3.83;3.40;;;32.70;24.10;;;;;;5133668;27;20460;-43
2021/12/21 12:42:17;;;;;;;3.63;3.17;;;32.70;23.70;;;;;;5113647;27;20412;-43
2021/12/21 12:44:45;;;;;;;4.90;3.70;;;32.80;23.60;;;;;;5115688;27;20467;-44
2021/12/21 12:47:21;;;;;;;3.80;3.40;;;32.90;23.50;;;;;;5096753;28;20403;-44
2021/12/21 12:49:51;;;;;;;7.37;3.93;;;32.90;23.50;;;;;;5097401;28;20412;-42
2021/12/21 12:52:31;;;;;;;5.63;3.40;;;32.90;23.30;;;;;;5097852;28;20508;-41
2021/12/21 12:55:00;;;;;;;4.20;3.80;;;32.80;23.30;;;;;;5097866;28;20402;-44
2021/12/21 12:57:37;;;;;;;3.90;2.90;;;32.80;23.30;;;;;;5114098;28;20396;-43
2021/12/21 13:00:26;;;;;;;3.77;3.33;;;32.80;23.30;;;;;;5115339;28;20386;-45
2021/12/21 13:03:06;;;;;;;3.40;3.10;;;32.80;23.40;;;;;;5099682;28;20496;-48
2021/12/21 13:05:39;;;;;;;4.43;3.10;;;32.90;23.30;;;;;;5082647;28;20844;-46
2021/12/21 13:08:08;;;;;;;4.60;3.20;;;33.00;23.20;;;;;;5098886;28;20523;-43
2021/12/21 13:10:40;;;;;;;3.70;3.23;;;33.00;23.20;;;;;;5115561;28;20396;-45
2021/12/21 13:13:06;;;;;;;4.77;4.20;;;33.00;23.20;;;;;;5115730;28;20860;-44
2021/12/21 13:15:43;;;;;;;4.20;3.20;;;32.90;23.10;;;;;;5115896;28;20418;-44
2021/12/21 13:18:17;;;;;;;6.00;4.00;;;32.80;23.10;;;;;;5117434;28;20192;-46
2021/12/21 13:20:44;;;;;;;3.40;3.10;;;32.70;23.00;;;;;;5116708;28;20391;-43
2021/12/21 13:23:23;;;;;;;4.77;2.83;;;32.70;23.10;;;;;;5116583;28;20451;-43
2021/12/21 13:25:54;;;;;;;3.80;3.40;;;32.70;23.00;;;;;;5113166;28;20923;-42
2021/12/21 13:28:21;;;;;;;3.93;3.37;;;32.60;22.90;;;;;;5113737;28;20420;-43
2021/12/21 13:30:54;;;;;;;5.20;3.80;;;32.60;22.90;;;;;;5095684;28;20380;-43
2021/12/21 13:33:23;;;;;;;3.83;3.50;;;32.50;22.90;;;;;;5114680;28;20410;-45
2021/12/21 13:35:57;;;;;;;4.50;3.40;;;32.40;22.90;;;;;;5096640;28;20691;-46
2021/12/21 13:38:25;;;;;;;4.00;3.60;;;32.30;22.90;;;;;;5077734;28;20770;-42
2021/12/21 13:41:17;;;;;;;4.03;3.67;;;32.30;22.90;;;;;;5115166;28;20665;-44
2021/12/21 13:44:00;;;;;;;3.90;3.50;;;32.20;22.90;;;;;;5113466;28;20419;-44
2021/12/21 13:46:32;;;;;;;4.93;3.70;;;32.10;22.90;;;;;;5116499;28;20470;-45
2021/12/21 13:48:58;;;;;;;4.13;3.73;;;32.00;22.90;;;;;;5097150;28;20414;-44
2021/12/21 13:51:24;;;;;;;3.77;3.47;;;32.00;23.00;;;;;;5116401;28;20470;-46
2021/12/21 13:53:54;;;;;;;4.17;3.40;;;31.90;23.00;;;;;;5097795;28;20175;-45